createdAt,value
2022-11-15T00:00:43.438Z,6.13
2022-11-15T00:02:05.810Z,6.12
2022-11-15T00:03:28.876Z,6.14
2022-11-15T00:04:50.865Z,6.13
2022-11-15T00:06:12.364Z,6.15
2022-11-15T00:07:54.692Z,6.13
2022-11-15T00:09:15.742Z,6.15
2022-11-15T00:10:36.606Z,6.13
2022-11-15T00:11:58.056Z,6.14
2022-11-15T00:13:18.705Z,6.13
2022-11-15T00:14:40.410Z,6.12
2022-11-15T00:16:02.790Z,6.12
2022-11-15T00:17:24.507Z,6.12
2022-11-15T00:18:50.700Z,6.10
2022-11-15T00:20:12.616Z,6.11
2022-11-15T00:21:34.096Z,6.11
2022-11-15T00:22:54.808Z,6.11
2022-11-15T00:24:16.456Z,6.13
2022-11-15T00:25:37.559Z,6.14
2022-11-15T00:26:59.725Z,6.16
2022-11-15T00:28:21.567Z,6.19
2022-11-15T00:29:44.254Z,6.21
2022-11-15T00:31:08.173Z,6.26
2022-11-15T00:32:33.523Z,6.30
2022-11-15T00:33:56.710Z,6.35
2022-11-15T00:35:17.967Z,6.38
2022-11-15T00:36:39.659Z,6.43
2022-11-15T00:38:00.524Z,6.48
2022-11-15T00:39:22.078Z,6.52
2022-11-15T00:40:44.058Z,6.56
2022-11-15T00:42:04.979Z,6.60
2022-11-15T00:43:26.471Z,6.63
2022-11-15T00:44:46.901Z,6.66
2022-11-15T00:46:09.456Z,6.69
2022-11-15T00:47:30.120Z,6.71
2022-11-15T00:48:51.848Z,6.74
2022-11-15T00:50:15.316Z,6.73
2022-11-15T00:51:37.977Z,6.77
2022-11-15T00:52:59.511Z,6.78
2022-11-15T00:54:21.246Z,6.80
2022-11-15T00:55:42.798Z,6.79
2022-11-15T00:57:04.883Z,6.80
2022-11-15T00:58:26.392Z,6.80
2022-11-15T00:59:47.834Z,6.81
2022-11-15T01:01:09.971Z,6.82
2022-11-15T01:02:31.856Z,6.83
2022-11-15T01:03:52.468Z,6.85
2022-11-15T01:05:15.294Z,6.87
2022-11-15T01:06:36.661Z,6.88
2022-11-15T01:07:57.372Z,6.88
2022-11-15T01:09:19.039Z,6.89
2022-11-15T01:10:39.477Z,6.89
2022-11-15T01:12:01.114Z,6.89
2022-11-15T01:13:21.664Z,6.89
2022-11-15T01:14:43.283Z,6.90
2022-11-15T01:16:07.843Z,6.90
2022-11-15T01:17:29.393Z,6.88
2022-11-15T01:18:51.241Z,6.88
2022-11-15T01:20:14.132Z,6.86
2022-11-15T01:21:35.840Z,6.83
2022-11-15T01:22:57.453Z,6.80
2022-11-15T01:24:18.938Z,6.76
2022-11-15T01:25:39.546Z,6.73
2022-11-15T01:27:01.156Z,6.68
2022-11-15T01:28:21.473Z,6.65
2022-11-15T01:29:43.583Z,6.62
2022-11-15T01:31:07.597Z,6.59
2022-11-15T01:32:29.134Z,6.55
2022-11-15T01:33:50.306Z,6.52
2022-11-15T01:35:11.956Z,6.49
2022-11-15T01:36:34.783Z,6.47
2022-11-15T01:37:55.283Z,6.42
2022-11-15T01:39:17.653Z,6.43
2022-11-15T01:40:39.074Z,6.41
2022-11-15T01:42:00.724Z,6.34
2022-11-15T01:43:23.191Z,6.36
2022-11-15T01:44:48.261Z,6.33
2022-11-15T01:46:26.070Z,6.31
2022-11-15T01:47:49.812Z,6.28
2022-11-15T01:49:16.671Z,6.26
2022-11-15T01:50:37.225Z,6.23
2022-11-15T01:52:02.875Z,6.21
2022-11-15T01:53:27.114Z,6.15
2022-11-15T01:54:50.058Z,6.17
2022-11-15T01:56:15.512Z,6.15
2022-11-15T01:57:37.566Z,6.13
2022-11-15T01:59:03.257Z,6.11
2022-11-15T02:00:24.862Z,6.12
2022-11-15T02:01:46.701Z,5.88
2022-11-15T02:03:08.518Z,6.08
2022-11-15T02:04:30.483Z,6.06
2022-11-15T02:05:53.062Z,6.04
2022-11-15T02:07:18.786Z,6.01
2022-11-15T02:08:39.707Z,6.01
2022-11-15T02:10:06.366Z,5.99
2022-11-15T02:11:27.425Z,5.98
2022-11-15T02:12:50.412Z,5.96
2022-11-15T02:14:12.731Z,5.94
2022-11-15T02:15:42.526Z,5.92
2022-11-15T02:17:10.885Z,5.90
2022-11-15T02:18:36.209Z,5.89
2022-11-15T02:20:33.190Z,5.84
2022-11-15T02:22:10.133Z,5.85
2022-11-15T02:24:05.524Z,5.84
2022-11-15T02:25:39.802Z,5.83
2022-11-15T02:27:51.831Z,5.81
2022-11-15T02:29:21.389Z,5.79
2022-11-15T02:30:49.870Z,5.79
2022-11-15T02:32:16.896Z,5.78
2022-11-15T02:33:46.906Z,5.75
2022-11-15T02:35:16.920Z,5.75
2022-11-15T02:36:45.764Z,5.73
2022-11-15T02:38:12.981Z,5.71
2022-11-15T02:39:42.080Z,5.71
2022-11-15T02:41:08.420Z,5.69
2022-11-15T02:42:52.948Z,5.66
2022-11-15T02:44:22.435Z,5.63
2022-11-15T02:45:49.360Z,5.62
2022-11-15T02:47:16.962Z,5.59
2022-11-15T02:48:38.021Z,5.57
2022-11-15T02:50:02.940Z,5.54
2022-11-15T02:51:23.778Z,5.52
2022-11-15T02:52:48.026Z,5.48
2022-11-15T02:54:12.311Z,5.44
2022-11-15T02:55:36.559Z,5.43
2022-11-15T02:57:03.100Z,5.41
2022-11-15T02:58:50.998Z,5.39
2022-11-15T03:00:17.117Z,5.37
2022-11-15T03:01:54.439Z,5.35
2022-11-15T03:03:31.348Z,5.34
2022-11-15T03:04:57.072Z,5.33
2022-11-15T03:06:26.984Z,5.32
2022-11-15T03:08:01.871Z,5.30
2022-11-15T03:09:36.145Z,5.30
2022-11-15T03:11:05.046Z,5.30
2022-11-15T03:12:30.247Z,5.31
2022-11-15T03:13:59.478Z,5.29
2022-11-15T03:15:25.957Z,5.33
2022-11-15T03:16:52.081Z,5.35
2022-11-15T03:18:21.626Z,5.31
2022-11-15T03:19:46.191Z,5.30
2022-11-15T03:21:10.249Z,5.33
2022-11-15T03:22:35.900Z,5.32
2022-11-15T03:24:00.493Z,5.32
2022-11-15T03:25:25.695Z,5.32
2022-11-15T03:26:50.189Z,5.32
2022-11-15T03:28:16.112Z,5.33
2022-11-15T03:29:41.194Z,5.32
2022-11-15T03:31:24.582Z,5.32
2022-11-15T03:32:49.872Z,5.32
2022-11-15T03:34:17.933Z,5.33
2022-11-15T03:35:42.675Z,5.33
2022-11-15T03:37:06.139Z,5.33
2022-11-15T03:38:29.246Z,5.34
2022-11-15T03:39:51.272Z,5.33
2022-11-15T03:41:19.291Z,5.33
2022-11-15T03:42:48.981Z,5.33
2022-11-15T03:44:17.556Z,5.33
2022-11-15T03:45:44.312Z,5.34
2022-11-15T03:47:10.642Z,5.32
2022-11-15T03:48:37.842Z,5.34
2022-11-15T03:50:02.584Z,5.33
2022-11-15T03:51:24.229Z,5.34
2022-11-15T03:52:47.702Z,5.35
2022-11-15T03:54:09.341Z,5.34
2022-11-15T03:55:29.687Z,5.35
2022-11-15T03:56:51.369Z,5.35
2022-11-15T03:58:12.842Z,5.37
2022-11-15T03:59:33.513Z,5.37
2022-11-15T04:00:55.168Z,5.38
2022-11-15T04:02:16.591Z,5.37
2022-11-15T04:03:39.649Z,5.38
2022-11-15T04:05:01.574Z,5.38
2022-11-15T04:06:23.175Z,5.37
2022-11-15T04:07:44.892Z,5.37
2022-11-15T04:09:05.639Z,5.39
2022-11-15T04:10:27.326Z,5.39
2022-11-15T04:11:47.851Z,5.40
2022-11-15T04:13:09.622Z,5.41
2022-11-15T04:14:30.248Z,5.42
2022-11-15T04:15:51.930Z,5.45
2022-11-15T04:17:12.322Z,5.43
2022-11-15T04:18:34.000Z,5.46
2022-11-15T04:20:14.567Z,5.47
2022-11-15T04:21:53.571Z,5.51
2022-11-15T04:23:35.069Z,5.53
2022-11-15T04:24:56.965Z,5.56
2022-11-15T04:26:20.430Z,5.60
2022-11-15T04:27:41.087Z,5.63
2022-11-15T04:29:20.247Z,5.66
2022-11-15T04:30:42.029Z,5.67
2022-11-15T04:32:02.578Z,5.73
2022-11-15T04:33:24.770Z,5.76
2022-11-15T04:34:45.461Z,5.75
2022-11-15T04:36:26.892Z,5.81
2022-11-15T04:37:49.585Z,5.84
2022-11-15T04:39:10.818Z,5.83
2022-11-15T04:40:32.063Z,5.89
2022-11-15T04:41:53.921Z,5.87
2022-11-15T04:43:15.445Z,5.93
2022-11-15T04:44:36.234Z,5.95
2022-11-15T04:45:58.109Z,5.97
2022-11-15T04:47:19.863Z,6.00
2022-11-15T04:48:41.610Z,5.98
2022-11-15T04:50:02.140Z,6.04
2022-11-15T04:51:25.225Z,6.05
2022-11-15T04:52:53.616Z,6.08
2022-11-15T04:54:14.211Z,6.11
2022-11-15T04:55:35.737Z,6.13
2022-11-15T04:56:56.236Z,6.15
2022-11-15T04:58:17.938Z,6.18
2022-11-15T04:59:39.262Z,6.19
2022-11-15T05:01:07.108Z,6.21
2022-11-15T05:02:49.367Z,6.23
2022-11-15T05:04:30.904Z,6.26
2022-11-15T05:05:51.555Z,6.27
2022-11-15T05:07:14.549Z,6.30
2022-11-15T05:08:35.223Z,6.31
2022-11-15T05:09:56.933Z,6.34
2022-11-15T05:11:17.824Z,6.36
2022-11-15T05:12:39.600Z,6.40
2022-11-15T05:13:59.874Z,6.41
2022-11-15T05:15:21.647Z,6.43
2022-11-15T05:16:43.234Z,6.43
2022-11-15T05:18:04.828Z,6.44
2022-11-15T05:19:26.137Z,6.46
2022-11-15T05:20:46.789Z,6.47
2022-11-15T05:22:08.461Z,6.47
2022-11-15T05:23:31.564Z,6.48
2022-11-15T05:24:52.696Z,6.48
2022-11-15T05:26:15.270Z,6.46
2022-11-15T05:27:37.247Z,6.47
2022-11-15T05:29:00.398Z,6.46
2022-11-15T05:30:22.255Z,6.46
2022-11-15T05:31:44.469Z,6.47
2022-11-15T05:33:05.199Z,6.48
2022-11-15T05:34:27.690Z,6.50
2022-11-15T05:35:55.933Z,6.52
2022-11-15T05:37:18.257Z,6.53
2022-11-15T05:38:41.520Z,6.55
2022-11-15T05:40:03.122Z,6.48
2022-11-15T05:41:32.278Z,6.59
2022-11-15T05:42:53.827Z,6.62
2022-11-15T05:44:19.193Z,6.63
2022-11-15T05:45:40.885Z,6.65
2022-11-15T05:47:02.402Z,6.65
2022-11-15T05:48:23.846Z,6.69
2022-11-15T05:49:47.576Z,6.70
2022-11-15T05:51:09.682Z,6.72
2022-11-15T05:52:33.585Z,6.74
2022-11-15T05:53:58.865Z,6.76
2022-11-15T05:55:20.529Z,6.78
2022-11-15T05:56:42.061Z,6.80
2022-11-15T05:58:03.561Z,6.82
2022-11-15T05:59:25.688Z,6.83
2022-11-15T06:00:47.838Z,6.81
2022-11-15T06:02:09.384Z,6.85
2022-11-15T06:03:31.793Z,6.86
2022-11-15T06:04:53.756Z,6.86
2022-11-15T06:06:16.594Z,6.88
2022-11-15T06:07:38.415Z,6.89
2022-11-15T06:09:01.151Z,6.90
2022-11-15T06:10:22.909Z,6.90
2022-11-15T06:11:44.347Z,6.92
2022-11-15T06:13:06.914Z,6.95
2022-11-15T06:14:28.849Z,6.96
2022-11-15T06:15:50.830Z,7.00
2022-11-15T06:17:12.044Z,7.02
2022-11-15T06:18:35.476Z,7.06
2022-11-15T06:19:57.079Z,7.07
2022-11-15T06:21:18.671Z,7.10
2022-11-15T06:22:39.206Z,7.11
2022-11-15T06:24:02.328Z,7.11
2022-11-15T06:25:23.012Z,7.15
2022-11-15T06:26:44.461Z,7.17
2022-11-15T06:28:05.440Z,7.19
2022-11-15T06:29:26.762Z,7.23
2022-11-15T06:30:53.002Z,7.24
2022-11-15T06:32:15.115Z,7.28
2022-11-15T06:33:36.995Z,7.30
2022-11-15T06:34:58.372Z,7.32
2022-11-15T06:36:20.261Z,7.34
2022-11-15T06:37:42.050Z,7.31
2022-11-15T06:39:05.586Z,7.36
2022-11-15T06:40:26.913Z,7.39
2022-11-15T06:41:48.414Z,7.41
2022-11-15T06:43:08.849Z,7.42
2022-11-15T06:44:30.454Z,7.45
2022-11-15T06:45:52.131Z,7.47
2022-11-15T06:47:13.437Z,7.48
2022-11-15T06:48:34.749Z,7.50
2022-11-15T06:49:56.647Z,7.52
2022-11-15T06:51:18.364Z,7.55
2022-11-15T06:52:39.621Z,7.58
2022-11-15T06:54:01.466Z,7.59
2022-11-15T06:55:24.729Z,7.61
2022-11-15T06:56:46.209Z,7.64
2022-11-15T06:58:07.912Z,7.66
2022-11-15T06:59:29.556Z,7.67
2022-11-15T07:00:51.436Z,7.70
2022-11-15T07:02:14.159Z,7.74
2022-11-15T07:03:37.856Z,7.77
2022-11-15T07:04:59.364Z,7.76
2022-11-15T07:06:20.838Z,7.81
2022-11-15T07:07:42.695Z,7.82
2022-11-15T07:09:04.685Z,7.85
2022-11-15T07:10:28.349Z,7.88
2022-11-15T07:11:50.202Z,7.90
2022-11-15T07:13:10.855Z,7.92
2022-11-15T07:14:32.201Z,7.93
2022-11-15T07:15:53.541Z,7.95
2022-11-15T07:17:14.966Z,7.96
2022-11-15T07:18:37.035Z,7.98
2022-11-15T07:19:58.348Z,7.98
2022-11-15T07:21:24.782Z,8.01
2022-11-15T07:22:49.533Z,8.01
2022-11-15T07:24:10.045Z,8.01
2022-11-15T07:25:32.791Z,8.02
2022-11-15T07:26:54.548Z,8.05
2022-11-15T07:28:16.364Z,8.06
2022-11-15T07:29:37.894Z,8.07
2022-11-15T07:30:59.379Z,8.08
2022-11-15T07:32:20.123Z,8.08
2022-11-15T07:33:41.768Z,8.08
2022-11-15T07:35:02.443Z,8.11
2022-11-15T07:36:24.263Z,8.11
2022-11-15T07:37:45.850Z,8.12
2022-11-15T07:39:07.331Z,8.13
2022-11-15T07:40:30.296Z,8.13
2022-11-15T07:42:13.437Z,8.15
2022-11-15T07:43:35.254Z,8.19
2022-11-15T07:44:57.159Z,8.19
2022-11-15T07:46:18.675Z,8.21
2022-11-15T07:47:40.316Z,8.21
2022-11-15T07:49:01.797Z,8.23
2022-11-15T07:50:24.598Z,8.24
2022-11-15T07:51:46.350Z,8.25
2022-11-15T07:53:08.087Z,8.27
2022-11-15T07:54:29.918Z,8.29
2022-11-15T07:55:51.358Z,8.27
2022-11-15T07:57:14.446Z,8.28
2022-11-15T07:58:36.184Z,8.29
2022-11-15T07:59:57.729Z,8.30
2022-11-15T08:01:19.287Z,8.32
2022-11-15T08:02:41.518Z,8.34
2022-11-15T08:04:03.126Z,8.34
2022-11-15T08:05:24.806Z,8.37
2022-11-15T08:06:46.271Z,8.38
2022-11-15T08:08:08.323Z,8.39
2022-11-15T08:09:29.929Z,8.40
2022-11-15T08:10:51.287Z,8.41
2022-11-15T08:12:14.542Z,8.42
2022-11-15T08:13:36.536Z,8.42
2022-11-15T08:14:58.224Z,8.41
2022-11-15T08:16:19.645Z,8.40
2022-11-15T08:17:41.333Z,8.40
2022-11-15T08:19:03.243Z,8.39
2022-11-15T08:20:25.372Z,8.35
2022-11-15T08:21:47.224Z,8.38
2022-11-15T08:23:09.753Z,8.38
2022-11-15T08:24:31.231Z,8.38
2022-11-15T08:25:52.676Z,8.39
2022-11-15T08:27:16.765Z,8.41
2022-11-15T08:28:38.843Z,8.42
2022-11-15T08:30:00.518Z,8.44
2022-11-15T08:31:22.272Z,8.48
2022-11-15T08:32:43.958Z,8.51
2022-11-15T08:34:06.115Z,8.54
2022-11-15T08:35:29.391Z,8.57
2022-11-15T08:36:51.250Z,8.59
2022-11-15T08:38:13.066Z,8.59
2022-11-15T08:39:34.764Z,8.64
2022-11-15T08:41:03.477Z,8.65
2022-11-15T08:42:26.687Z,8.65
2022-11-15T08:43:48.355Z,8.68
2022-11-15T08:45:11.045Z,8.65
2022-11-15T08:46:32.411Z,8.71
2022-11-15T08:47:54.721Z,8.72
2022-11-15T08:49:16.666Z,8.71
2022-11-15T08:50:38.262Z,8.73
2022-11-15T08:51:59.761Z,8.73
2022-11-15T08:53:21.496Z,8.76
2022-11-15T08:54:43.314Z,8.77
2022-11-15T08:56:08.790Z,8.80
2022-11-15T08:57:32.359Z,8.83
2022-11-15T08:58:53.855Z,8.86
2022-11-15T09:00:16.688Z,8.88
2022-11-15T09:01:38.507Z,8.90
2022-11-15T09:03:00.293Z,8.94
2022-11-15T09:04:21.991Z,8.94
2022-11-15T09:05:43.868Z,8.94
2022-11-15T09:07:05.295Z,8.95
2022-11-15T09:10:10.540Z,8.93
2022-11-15T09:11:32.285Z,8.89
2022-11-15T09:12:55.372Z,8.87
2022-11-15T09:14:17.314Z,8.86
2022-11-15T09:15:38.718Z,8.86
2022-11-15T09:17:00.279Z,8.87
2022-11-15T09:18:23.369Z,8.87
2022-11-15T09:19:45.143Z,8.89
2022-11-15T09:21:06.910Z,8.89
2022-11-15T09:22:29.438Z,8.92
2022-11-15T09:23:52.876Z,8.95
2022-11-15T09:25:14.224Z,8.97
2022-11-15T09:26:36.040Z,8.99
2022-11-15T09:27:59.165Z,9.01
2022-11-15T09:29:20.864Z,9.05
2022-11-15T09:30:42.403Z,9.06
2022-11-15T09:32:04.144Z,9.09
2022-11-15T09:33:25.887Z,9.12
2022-11-15T09:34:47.273Z,9.16
2022-11-15T09:36:11.142Z,9.21
2022-11-15T09:37:33.973Z,9.25
2022-11-15T09:38:55.715Z,9.28
2022-11-15T09:40:20.283Z,9.32
2022-11-15T09:42:11.833Z,9.36
2022-11-15T09:43:44.551Z,9.39
2022-11-15T09:45:17.035Z,9.41
2022-11-15T09:46:47.927Z,9.45
2022-11-15T09:48:14.972Z,9.49
2022-11-15T09:49:38.017Z,9.54
2022-11-15T09:50:54.824Z,9.57
2022-11-15T09:51:58.007Z,9.58
2022-11-15T09:53:01.178Z,9.61
2022-11-15T09:55:45.212Z,9.66
2022-11-15T09:56:49.054Z,9.70
2022-11-15T09:58:02.065Z,9.71
2022-11-15T09:59:22.934Z,9.75
2022-11-15T10:00:50.039Z,9.81
2022-11-15T10:02:04.122Z,9.86
2022-11-15T10:03:13.645Z,9.87
2022-11-15T10:04:17.662Z,9.91
2022-11-15T10:05:26.351Z,9.93
2022-11-15T10:06:30.257Z,9.92
2022-11-15T10:07:41.711Z,9.94
2022-11-15T10:08:56.062Z,9.94
2022-11-15T10:10:08.881Z,9.90
2022-11-15T10:12:40.880Z,9.96
2022-11-15T10:13:47.868Z,9.98
2022-11-15T10:14:59.006Z,9.99
2022-11-15T10:16:12.038Z,9.99
2022-11-15T10:17:44.570Z,10.01
2022-11-15T10:18:59.716Z,10.03
2022-11-15T10:20:14.387Z,10.03
2022-11-15T10:21:19.244Z,10.06
2022-11-15T10:22:30.196Z,10.07
2022-11-15T10:23:33.157Z,10.05
2022-11-15T10:24:40.536Z,10.08
2022-11-15T10:25:45.795Z,10.08
2022-11-15T10:26:48.834Z,10.11
2022-11-15T10:28:02.471Z,10.11
2022-11-15T10:29:05.819Z,10.11
2022-11-15T10:30:14.782Z,10.11
2022-11-15T10:31:42.492Z,10.11
2022-11-15T10:32:48.080Z,10.10
2022-11-15T10:33:51.545Z,10.10
2022-11-15T10:34:53.832Z,10.12
2022-11-15T10:36:22.609Z,10.14
2022-11-15T10:37:34.674Z,10.14
2022-11-15T10:38:54.381Z,10.16
2022-11-15T10:40:06.646Z,10.15
2022-11-15T10:41:09.296Z,10.15
2022-11-15T10:42:20.074Z,10.16
2022-11-15T10:43:23.031Z,10.15
2022-11-15T10:44:27.721Z,10.14
2022-11-15T10:45:33.824Z,10.14
2022-11-15T10:46:46.717Z,10.14
2022-11-15T10:47:50.750Z,10.14
2022-11-15T10:48:53.977Z,10.15
2022-11-15T10:50:03.306Z,10.15
2022-11-15T10:51:23.395Z,10.17
2022-11-15T10:52:26.292Z,10.17
2022-11-15T10:53:34.438Z,10.19
2022-11-15T10:54:40.356Z,10.19
2022-11-15T10:55:49.214Z,10.21
2022-11-15T10:56:54.267Z,10.23
2022-11-15T10:58:01.682Z,10.24
2022-11-15T10:59:03.943Z,10.27
2022-11-15T11:00:28.000Z,10.28
2022-11-15T11:01:32.536Z,10.31
2022-11-15T11:02:38.866Z,10.35
2022-11-15T11:03:43.056Z,10.37
2022-11-15T11:04:52.378Z,10.41
2022-11-15T11:06:06.626Z,10.43
2022-11-15T11:07:22.987Z,10.46
2022-11-15T11:08:27.085Z,10.46
2022-11-15T11:09:34.016Z,10.52
2022-11-15T11:10:51.173Z,10.54
2022-11-15T11:11:55.346Z,10.58
2022-11-15T11:13:14.256Z,10.60
2022-11-15T11:14:24.066Z,10.64
2022-11-15T11:15:30.628Z,10.66
2022-11-15T11:16:46.706Z,10.67
2022-11-15T11:18:00.087Z,10.70
2022-11-15T11:19:12.699Z,10.72
2022-11-15T11:20:22.876Z,10.73
2022-11-15T11:21:36.981Z,10.74
2022-11-15T11:22:55.090Z,10.76
2022-11-15T11:24:05.994Z,10.77
2022-11-15T11:25:24.991Z,10.81
2022-11-15T11:26:42.981Z,10.82
2022-11-15T11:27:57.632Z,10.84
2022-11-15T11:29:08.772Z,10.85
2022-11-15T11:30:17.458Z,10.85
2022-11-15T11:31:31.792Z,10.86
2022-11-15T11:33:12.145Z,10.85
2022-11-15T11:34:32.338Z,10.88
2022-11-15T11:35:43.331Z,10.90
2022-11-15T11:36:54.988Z,10.91
2022-11-15T11:38:16.222Z,10.93
2022-11-15T11:39:30.673Z,10.96
2022-11-15T11:40:39.655Z,10.97
2022-11-15T11:41:53.963Z,10.98
2022-11-15T11:43:02.536Z,10.94
2022-11-15T11:44:26.923Z,10.99
2022-11-15T11:45:58.991Z,11.01
2022-11-15T11:47:02.677Z,11.02
2022-11-15T11:48:23.027Z,11.03
2022-11-15T11:49:33.154Z,10.98
2022-11-15T11:50:40.054Z,11.05
2022-11-15T11:51:47.868Z,11.04
2022-11-15T11:53:03.738Z,11.08
2022-11-15T11:54:14.822Z,11.09
2022-11-15T11:55:22.758Z,11.09
2022-11-15T11:56:29.940Z,11.10
2022-11-15T11:57:43.672Z,11.11
2022-11-15T11:58:48.822Z,11.12
2022-11-15T11:59:58.635Z,11.13
2022-11-15T12:01:18.075Z,11.14
2022-11-15T12:02:30.106Z,11.16
2022-11-15T12:03:43.027Z,11.16
2022-11-15T12:04:52.007Z,11.16
2022-11-15T12:05:58.811Z,11.15
2022-11-15T12:07:04.708Z,11.16
2022-11-15T12:08:26.839Z,11.14
2022-11-15T12:09:36.044Z,11.12
2022-11-15T12:10:40.881Z,11.10
2022-11-15T12:11:54.040Z,11.15
2022-11-15T12:13:02.647Z,11.15
2022-11-15T12:14:12.691Z,11.16
2022-11-15T12:15:20.489Z,11.19
2022-11-15T12:16:28.673Z,11.21
2022-11-15T12:17:33.799Z,11.23
2022-11-15T12:18:39.440Z,11.26
2022-11-15T12:19:43.710Z,11.29
2022-11-15T12:20:58.093Z,11.32
2022-11-15T12:22:07.318Z,11.36
2022-11-15T12:23:15.146Z,11.37
2022-11-15T12:24:25.999Z,11.46
2022-11-15T12:25:34.985Z,11.50
2022-11-15T12:26:43.779Z,11.55
2022-11-15T12:27:51.671Z,11.59
2022-11-15T12:29:07.522Z,11.63
2022-11-15T12:30:16.166Z,11.67
2022-11-15T12:31:24.506Z,11.72
2022-11-15T12:32:31.682Z,11.74
2022-11-15T12:33:39.322Z,11.78
2022-11-15T12:34:44.776Z,11.80
2022-11-15T12:36:00.569Z,11.81
2022-11-15T12:37:24.214Z,11.82
2022-11-15T12:38:59.645Z,11.82
2022-11-15T12:40:19.279Z,11.81
2022-11-15T12:41:24.098Z,11.81
2022-11-15T12:42:44.384Z,11.80
2022-11-15T12:43:48.384Z,11.80
2022-11-15T12:45:01.301Z,11.80
2022-11-15T12:46:06.527Z,11.75
2022-11-15T12:47:25.748Z,11.80
2022-11-15T12:48:56.304Z,11.81
2022-11-15T12:49:59.525Z,11.81
2022-11-15T12:51:01.988Z,11.83
2022-11-15T12:52:10.571Z,11.83
2022-11-15T12:53:29.474Z,11.87
2022-11-15T12:55:11.886Z,11.89
2022-11-15T12:56:25.088Z,11.92
2022-11-15T12:57:44.437Z,11.94
2022-11-15T12:58:50.596Z,11.97
2022-11-15T12:59:55.992Z,11.99
2022-11-15T13:00:59.090Z,12.03
2022-11-15T13:02:01.602Z,12.07
2022-11-15T13:03:25.962Z,12.14
2022-11-15T13:04:31.298Z,12.19
2022-11-15T13:06:01.907Z,12.26
2022-11-15T13:07:08.557Z,12.30
2022-11-15T13:08:30.927Z,12.32
2022-11-15T13:09:53.364Z,12.35
2022-11-15T13:10:56.382Z,12.37
2022-11-15T13:12:02.686Z,12.38
2022-11-15T13:13:08.448Z,12.36
2022-11-15T13:14:43.058Z,12.37
2022-11-15T13:15:57.360Z,12.34
2022-11-15T13:16:59.909Z,12.33
2022-11-15T13:18:31.124Z,12.30
2022-11-15T13:19:34.504Z,12.28
2022-11-15T13:20:37.554Z,12.28
2022-11-15T13:22:20.173Z,12.29
2022-11-15T13:23:24.301Z,12.31
2022-11-15T13:24:27.515Z,12.33
2022-11-15T13:25:56.666Z,12.36
2022-11-15T13:27:01.291Z,12.37
2022-11-15T13:28:11.762Z,12.40
2022-11-15T13:29:19.682Z,12.43
2022-11-15T13:30:23.274Z,12.44
2022-11-15T13:31:29.879Z,12.46
2022-11-15T13:32:33.057Z,12.47
2022-11-15T13:33:38.843Z,12.48
2022-11-15T13:34:52.371Z,12.48
2022-11-15T13:35:58.848Z,12.48
2022-11-15T13:37:02.083Z,12.50
2022-11-15T13:38:05.894Z,12.50
2022-11-15T13:39:25.380Z,12.52
2022-11-15T13:40:31.416Z,12.52
2022-11-15T13:41:35.985Z,12.53
2022-11-15T13:42:43.097Z,12.51
2022-11-15T13:43:49.389Z,12.52
2022-11-15T13:45:00.348Z,12.51
2022-11-15T13:46:13.004Z,12.48
2022-11-15T13:47:17.536Z,12.47
2022-11-15T13:48:19.530Z,12.46
2022-11-15T13:49:31.817Z,12.44
2022-11-15T13:50:37.893Z,12.42
2022-11-15T13:51:46.607Z,12.43
2022-11-15T13:52:50.695Z,12.44
2022-11-15T13:53:57.728Z,12.45
2022-11-15T13:55:05.141Z,12.45
2022-11-15T13:56:08.790Z,12.45
2022-11-15T13:57:15.734Z,12.45
2022-11-15T13:58:24.160Z,12.46
2022-11-15T13:59:28.318Z,12.46
2022-11-15T14:00:43.663Z,12.46
2022-11-15T14:01:46.881Z,12.47
2022-11-15T14:02:50.255Z,12.47
2022-11-15T14:03:58.241Z,12.47
2022-11-15T14:05:07.823Z,12.48
2022-11-15T14:06:13.108Z,12.49
2022-11-15T14:07:19.860Z,12.51
2022-11-15T14:08:25.255Z,12.53
2022-11-15T14:09:37.984Z,12.54
2022-11-15T14:10:40.942Z,12.55
2022-11-15T14:11:53.130Z,12.58
2022-11-15T14:12:56.427Z,12.62
2022-11-15T14:14:16.995Z,12.69
2022-11-15T14:15:30.396Z,12.74
2022-11-15T14:16:36.336Z,12.78
2022-11-15T14:17:45.725Z,12.79
2022-11-15T14:18:55.267Z,12.80
2022-11-15T14:19:58.100Z,12.79
2022-11-15T14:21:08.621Z,12.78
2022-11-15T14:22:18.293Z,12.73
2022-11-15T14:23:28.507Z,12.71
2022-11-15T14:24:32.651Z,12.65
2022-11-15T14:25:37.221Z,12.62
2022-11-15T14:26:39.272Z,12.58
2022-11-15T14:27:43.263Z,12.55
2022-11-15T14:28:46.288Z,12.52
2022-11-15T14:29:51.256Z,12.49
2022-11-15T14:30:56.757Z,12.47
2022-11-15T14:32:14.448Z,12.45
2022-11-15T14:33:23.656Z,12.41
2022-11-15T14:34:26.725Z,12.37
2022-11-15T14:35:29.749Z,12.34
2022-11-15T14:36:31.890Z,12.31
2022-11-15T14:37:36.084Z,12.28
2022-11-15T14:38:39.207Z,12.24
2022-11-15T14:39:42.281Z,12.20
2022-11-15T14:40:46.050Z,12.17
2022-11-15T14:41:48.038Z,12.14
2022-11-15T14:42:51.941Z,12.09
2022-11-15T14:43:54.222Z,12.07
2022-11-15T14:44:58.807Z,12.05
2022-11-15T14:46:01.337Z,12.02
2022-11-15T14:47:04.368Z,12.00
2022-11-15T14:48:07.877Z,11.98
2022-11-15T14:49:10.989Z,11.95
2022-11-15T14:50:14.133Z,11.93
2022-11-15T14:51:19.710Z,11.88
2022-11-15T14:52:32.275Z,11.86
2022-11-15T14:53:36.159Z,11.81
2022-11-15T14:54:38.231Z,11.77
2022-11-15T14:55:41.551Z,11.74
2022-11-15T14:56:43.893Z,11.70
2022-11-15T14:57:50.241Z,11.66
2022-11-15T14:58:56.729Z,11.62
2022-11-15T15:00:01.695Z,11.59
2022-11-15T15:01:21.440Z,11.52
2022-11-15T15:02:26.817Z,11.52
2022-11-15T15:03:29.878Z,11.48
2022-11-15T15:04:31.923Z,11.46
2022-11-15T15:05:37.275Z,11.43
2022-11-15T15:06:40.756Z,11.38
2022-11-15T15:07:43.448Z,11.35
2022-11-15T15:08:46.987Z,11.32
2022-11-15T15:09:49.051Z,11.29
2022-11-15T15:10:52.040Z,11.26
2022-11-15T15:11:55.644Z,11.23
2022-11-15T15:12:58.704Z,11.18
2022-11-15T15:14:02.247Z,11.17
2022-11-15T15:15:14.309Z,11.13
2022-11-15T15:16:17.306Z,11.10
2022-11-15T15:17:19.428Z,11.06
2022-11-15T15:18:22.707Z,11.03
2022-11-15T15:19:26.300Z,11.00
2022-11-15T15:20:29.854Z,10.95
2022-11-15T15:21:36.861Z,10.93
2022-11-15T15:22:41.598Z,10.90
2022-11-15T15:23:43.715Z,10.87
2022-11-15T15:24:47.973Z,10.85
2022-11-15T15:25:51.151Z,10.81
2022-11-15T15:26:53.384Z,10.78
2022-11-15T15:27:57.828Z,10.74
2022-11-15T15:29:01.151Z,10.73
2022-11-15T15:30:03.702Z,10.70
2022-11-15T15:31:08.382Z,10.67
2022-11-15T15:32:11.917Z,10.66
2022-11-15T15:33:17.008Z,10.57
2022-11-15T15:34:20.261Z,10.61
2022-11-15T15:35:22.926Z,10.58
2022-11-15T15:36:26.255Z,10.53
2022-11-15T15:37:28.985Z,10.53
2022-11-15T15:38:32.522Z,10.50
2022-11-15T15:39:35.056Z,10.46
2022-11-15T15:40:41.021Z,10.46
2022-11-15T15:41:44.597Z,10.44
2022-11-15T15:42:47.678Z,10.42
2022-11-15T15:43:50.770Z,10.41
2022-11-15T15:44:52.798Z,10.38
2022-11-15T15:45:55.895Z,10.36
2022-11-15T15:47:00.397Z,10.33
2022-11-15T15:48:03.482Z,10.31
2022-11-15T15:49:06.518Z,10.30
2022-11-15T15:50:22.122Z,10.22
2022-11-15T15:51:25.178Z,10.23
2022-11-15T15:52:27.304Z,10.22
2022-11-15T15:53:31.493Z,10.20
2022-11-15T15:54:34.730Z,10.15
2022-11-15T15:55:38.488Z,10.13
2022-11-15T15:56:41.754Z,10.11
2022-11-15T15:57:44.041Z,10.08
2022-11-15T15:58:47.363Z,10.06
2022-11-15T15:59:49.603Z,10.03
2022-11-15T16:00:52.682Z,10.02
2022-11-15T16:01:54.757Z,10.00
2022-11-15T16:02:59.832Z,9.97
2022-11-15T16:04:02.283Z,9.95
2022-11-15T16:05:06.052Z,9.95
2022-11-15T16:06:37.410Z,9.94
2022-11-15T16:07:44.081Z,9.93
2022-11-15T16:09:08.178Z,9.91
2022-11-15T16:10:19.986Z,9.90
2022-11-15T16:11:23.825Z,9.88
2022-11-15T16:12:25.991Z,9.87
2022-11-15T16:13:29.070Z,9.87
2022-11-15T16:14:31.168Z,9.86
2022-11-15T16:15:34.576Z,9.86
2022-11-15T16:16:38.787Z,9.86
2022-11-15T16:17:44.914Z,9.85
2022-11-15T16:18:49.607Z,9.86
2022-11-15T16:19:52.988Z,9.85
2022-11-15T16:20:57.679Z,9.86
2022-11-15T16:21:59.913Z,9.87
2022-11-15T16:23:08.955Z,9.87
2022-11-15T16:24:11.559Z,9.87
2022-11-15T16:25:14.765Z,9.87
2022-11-15T16:26:22.523Z,9.89
2022-11-15T16:27:25.812Z,9.89
2022-11-15T16:28:31.235Z,9.90
2022-11-15T16:29:34.529Z,9.91
2022-11-15T16:30:37.745Z,9.91
2022-11-15T16:31:41.085Z,9.94
2022-11-15T16:32:43.378Z,9.94
2022-11-15T16:33:47.348Z,9.95
2022-11-15T16:34:52.805Z,9.96
2022-11-15T16:35:56.110Z,9.98
2022-11-15T16:36:58.240Z,9.99
2022-11-15T16:38:01.309Z,9.99
2022-11-15T16:39:04.955Z,9.98
2022-11-15T16:40:17.793Z,10.01
2022-11-15T16:41:21.044Z,10.01
2022-11-15T16:42:24.086Z,10.02
2022-11-15T16:43:27.175Z,10.03
2022-11-15T16:44:30.232Z,10.02
2022-11-15T16:45:35.000Z,10.04
2022-11-15T16:46:38.765Z,10.03
2022-11-15T16:47:40.768Z,10.02
2022-11-15T16:48:44.238Z,10.02
2022-11-15T16:49:47.787Z,10.01
2022-11-15T16:50:52.896Z,10.00
2022-11-15T16:51:54.875Z,9.98
2022-11-15T16:53:00.128Z,9.97